sensor_id;sensor_type;location;lat;lon;timestamp;pressure;altitude;pressure_sealevel;temperature;humidity
81547;BME280;71078;48.358;10.960;2023-08-20T00:01:56;96404.25;;;26.89;44.98
81547;BME280;71078;48.358;10.960;2023-08-20T00:04:17;96397.44;;;26.85;44.93
81547;BME280;71078;48.358;10.960;2023-08-20T00:06:38;96398.91;;;26.78;45.24
81547;BME280;71078;48.358;10.960;2023-08-20T00:09:00;96397.81;;;26.81;45.39
81547;BME280;71078;48.358;10.960;2023-08-20T00:11:21;96397.81;;;26.81;45.31
81547;BME280;71078;48.358;10.960;2023-08-20T00:13:41;96396.75;;;26.92;45.43
81547;BME280;71078;48.358;10.960;2023-08-20T00:16:03;96400.31;;;26.92;45.35
81547;BME280;71078;48.358;10.960;2023-08-20T00:18:24;96387.88;;;26.88;45.14
81547;BME280;71078;48.358;10.960;2023-08-20T00:20:45;96394.63;;;26.85;45.40
81547;BME280;71078;48.358;10.960;2023-08-20T00:23:06;96385.22;;;26.82;45.34
81547;BME280;71078;48.358;10.960;2023-08-20T00:25:27;96388.75;;;26.75;45.31
81547;BME280;71078;48.358;10.960;2023-08-20T00:27:48;96388.53;;;26.73;45.36
81547;BME280;71078;48.358;10.960;2023-08-20T00:30:11;96397.16;;;26.68;45.61
81547;BME280;71078;48.358;10.960;2023-08-20T00:32:32;96393.22;;;26.71;45.59
81547;BME280;71078;48.358;10.960;2023-08-20T00:34:53;96389.78;;;26.64;45.39
81547;BME280;71078;48.358;10.960;2023-08-20T00:37:13;96384.84;;;26.57;45.65
81547;BME280;71078;48.358;10.960;2023-08-20T00:39:34;96390.28;;;26.55;45.85
81547;BME280;71078;48.358;10.960;2023-08-20T00:41:55;96390.56;;;26.44;45.91
81547;BME280;71078;48.358;10.960;2023-08-20T00:44:16;96393.84;;;26.35;46.19
81547;BME280;71078;48.358;10.960;2023-08-20T00:46:36;96397.50;;;26.22;46.29
81547;BME280;71078;48.358;10.960;2023-08-20T00:48:57;96393.25;;;26.08;46.41
81547;BME280;71078;48.358;10.960;2023-08-20T00:51:18;96391.53;;;26.05;46.73
81547;BME280;71078;48.358;10.960;2023-08-20T00:53:38;96402.91;;;25.99;46.94
81547;BME280;71078;48.358;10.960;2023-08-20T00:55:59;96401.75;;;25.95;47.07
81547;BME280;71078;48.358;10.960;2023-08-20T00:58:20;96398.31;;;25.89;47.37
81547;BME280;71078;48.358;10.960;2023-08-20T01:00:40;96399.94;;;25.84;47.82
81547;BME280;71078;48.358;10.960;2023-08-20T01:03:01;96411.41;;;25.86;47.91
81547;BME280;71078;48.358;10.960;2023-08-20T01:05:23;96387.69;;;25.82;47.49
81547;BME280;71078;48.358;10.960;2023-08-20T01:13:15;96406.13;;;25.83;47.58
81547;BME280;71078;48.358;10.960;2023-08-20T01:15:36;96408.81;;;25.88;47.27
81547;BME280;71078;48.358;10.960;2023-08-20T01:17:57;96405.38;;;25.69;47.73
81547;BME280;71078;48.358;10.960;2023-08-20T01:20:17;96415.56;;;25.59;47.99
81547;BME280;71078;48.358;10.960;2023-08-20T01:22:56;96420.44;;;25.58;47.98
81547;BME280;71078;48.358;10.960;2023-08-20T01:28:28;96422.63;;;25.52;48.31
81547;BME280;71078;48.358;10.960;2023-08-20T01:30:50;96424.34;;;25.55;48.40
81547;BME280;71078;48.358;10.960;2023-08-20T01:33:11;96413.84;;;25.56;48.06
81547;BME280;71078;48.358;10.960;2023-08-20T01:35:33;96407.16;;;25.46;48.24
81547;BME280;71078;48.358;10.960;2023-08-20T01:37:53;96424.38;;;25.42;48.34
81547;BME280;71078;48.358;10.960;2023-08-20T01:40:14;96423.63;;;25.28;48.68
81547;BME280;71078;48.358;10.960;2023-08-20T01:42:35;96423.19;;;25.24;48.62
81547;BME280;71078;48.358;10.960;2023-08-20T01:44:55;96414.84;;;25.19;49.00
81547;BME280;71078;48.358;10.960;2023-08-20T01:47:16;96419.50;;;25.16;48.88
81547;BME280;71078;48.358;10.960;2023-08-20T01:49:37;96414.97;;;25.13;49.05
81547;BME280;71078;48.358;10.960;2023-08-20T01:51:57;96422.63;;;25.13;48.73
81547;BME280;71078;48.358;10.960;2023-08-20T01:54:18;96419.63;;;25.11;49.18
81547;BME280;71078;48.358;10.960;2023-08-20T01:56:38;96418.84;;;24.97;49.14
81547;BME280;71078;48.358;10.960;2023-08-20T01:58:59;96422.53;;;25.05;49.06
81547;BME280;71078;48.358;10.960;2023-08-20T02:01:19;96421.03;;;24.91;50.12
81547;BME280;71078;48.358;10.960;2023-08-20T02:03:40;96423.38;;;24.73;49.80
81547;BME280;71078;48.358;10.960;2023-08-20T02:06:01;96419.38;;;24.69;49.93
81547;BME280;71078;48.358;10.960;2023-08-20T02:08:21;96425.84;;;24.64;50.14
81547;BME280;71078;48.358;10.960;2023-08-20T02:10:42;96430.19;;;24.65;50.19
81547;BME280;71078;48.358;10.960;2023-08-20T02:13:03;96428.72;;;24.58;50.11
81547;BME280;71078;48.358;10.960;2023-08-20T02:15:24;96429.75;;;24.61;50.47
81547;BME280;71078;48.358;10.960;2023-08-20T02:17:45;96438.06;;;24.66;50.22
81547;BME280;71078;48.358;10.960;2023-08-20T02:20:06;96436.00;;;24.67;50.35
81547;BME280;71078;48.358;10.960;2023-08-20T02:22:30;96429.81;;;24.55;50.14
81547;BME280;71078;48.358;10.960;2023-08-20T02:24:50;96430.75;;;24.45;50.76
81547;BME280;71078;48.358;10.960;2023-08-20T02:27:10;96436.06;;;24.48;50.45
81547;BME280;71078;48.358;10.960;2023-08-20T02:29:31;96438.66;;;24.46;50.78
81547;BME280;71078;48.358;10.960;2023-08-20T02:31:51;96438.75;;;24.40;51.08
81547;BME280;71078;48.358;10.960;2023-08-20T02:34:12;96442.41;;;24.35;50.71
81547;BME280;71078;48.358;10.960;2023-08-20T02:36:32;96439.91;;;24.32;50.52
81547;BME280;71078;48.358;10.960;2023-08-20T02:38:53;96438.03;;;24.21;50.78
81547;BME280;71078;48.358;10.960;2023-08-20T02:41:14;96438.66;;;24.14;51.20
81547;BME280;71078;48.358;10.960;2023-08-20T02:43:35;96439.28;;;24.07;51.15
81547;BME280;71078;48.358;10.960;2023-08-20T02:45:55;96434.50;;;24.02;51.41
81547;BME280;71078;48.358;10.960;2023-08-20T02:48:17;96438.38;;;23.99;51.35
81547;BME280;71078;48.358;10.960;2023-08-20T02:50:38;96439.41;;;23.96;51.56
81547;BME280;71078;48.358;10.960;2023-08-20T02:52:58;96428.50;;;23.92;51.47
81547;BME280;71078;48.358;10.960;2023-08-20T02:55:19;96432.97;;;23.82;51.65
81547;BME280;71078;48.358;10.960;2023-08-20T02:57:39;96444.50;;;23.78;51.79
81547;BME280;71078;48.358;10.960;2023-08-20T03:00:00;96432.00;;;23.79;51.93
81547;BME280;71078;48.358;10.960;2023-08-20T03:02:20;96433.00;;;23.63;52.15
81547;BME280;71078;48.358;10.960;2023-08-20T03:04:41;96438.13;;;23.59;52.63
81547;BME280;71078;48.358;10.960;2023-08-20T03:07:01;96443.00;;;23.59;52.51
81547;BME280;71078;48.358;10.960;2023-08-20T03:09:22;96438.00;;;23.52;52.68
81547;BME280;71078;48.358;10.960;2023-08-20T03:11:42;96438.06;;;23.65;52.48
81547;BME280;71078;48.358;10.960;2023-08-20T03:14:03;96437.84;;;23.63;52.48
81547;BME280;71078;48.358;10.960;2023-08-20T03:16:24;96437.91;;;23.76;52.18
81547;BME280;71078;48.358;10.960;2023-08-20T03:18:45;96433.50;;;23.62;52.25
81547;BME280;71078;48.358;10.960;2023-08-20T03:21:05;96439.88;;;23.62;52.32
81547;BME280;71078;48.358;10.960;2023-08-20T03:23:27;96421.16;;;23.52;52.43
81547;BME280;71078;48.358;10.960;2023-08-20T03:25:48;96438.00;;;23.52;52.40
81547;BME280;71078;48.358;10.960;2023-08-20T03:28:09;96438.59;;;23.44;52.68
81547;BME280;71078;48.358;10.960;2023-08-20T03:30:29;96439.94;;;23.38;53.05
81547;BME280;71078;48.358;10.960;2023-08-20T03:32:50;96445.63;;;23.32;52.87
81547;BME280;71078;48.358;10.960;2023-08-20T03:35:10;96437.66;;;23.36;52.80
81547;BME280;71078;48.358;10.960;2023-08-20T03:37:31;96441.28;;;23.31;52.47
81547;BME280;71078;48.358;10.960;2023-08-20T03:39:52;96437.66;;;23.36;52.55
81547;BME280;71078;48.358;10.960;2023-08-20T03:42:13;96442.69;;;23.43;52.67
81547;BME280;71078;48.358;10.960;2023-08-20T03:44:33;96444.19;;;23.44;52.05
81547;BME280;71078;48.358;10.960;2023-08-20T03:46:54;96447.00;;;23.44;51.83
81547;BME280;71078;48.358;10.960;2023-08-20T03:49:14;96444.50;;;23.41;52.17
81547;BME280;71078;48.358;10.960;2023-08-20T03:51:35;96436.69;;;23.34;52.09
81547;BME280;71078;48.358;10.960;2023-08-20T03:53:55;96436.50;;;23.26;51.83
81547;BME280;71078;48.358;10.960;2023-08-20T03:56:16;96445.84;;;23.10;52.22
81547;BME280;71078;48.358;10.960;2023-08-20T03:58:36;96444.31;;;22.90;52.73
81547;BME280;71078;48.358;10.960;2023-08-20T04:00:57;96443.16;;;22.80;52.38
81547;BME280;71078;48.358;10.960;2023-08-20T04:03:18;96426.16;;;22.72;52.44
81547;BME280;71078;48.358;10.960;2023-08-20T04:05:39;96438.66;;;22.71;52.51
81547;BME280;71078;48.358;10.960;2023-08-20T04:08:00;96441.00;;;22.62;52.60
81547;BME280;71078;48.358;10.960;2023-08-20T04:10:21;96446.47;;;22.48;53.27
81547;BME280;71078;48.358;10.960;2023-08-20T04:12:41;96443.44;;;22.46;52.87
81547;BME280;71078;48.358;10.960;2023-08-20T04:15:02;96442.44;;;22.44;53.17
81547;BME280;71078;48.358;10.960;2023-08-20T04:17:23;96453.63;;;22.44;52.75
81547;BME280;71078;48.358;10.960;2023-08-20T04:19:44;96449.31;;;22.43;53.17
81547;BME280;71078;48.358;10.960;2023-08-20T04:22:04;96453.72;;;22.33;53.17
81547;BME280;71078;48.358;10.960;2023-08-20T04:24:25;96454.25;;;22.31;53.37
81547;BME280;71078;48.358;10.960;2023-08-20T04:26:45;96450.94;;;22.33;53.19
81547;BME280;71078;48.358;10.960;2023-08-20T04:29:06;96463.13;;;22.35;52.98
81547;BME280;71078;48.358;10.960;2023-08-20T04:31:27;96456.78;;;22.35;53.47
81547;BME280;71078;48.358;10.960;2023-08-20T04:33:48;96452.16;;;22.37;53.46
81547;BME280;71078;48.358;10.960;2023-08-20T04:36:08;96451.44;;;22.31;53.49
81547;BME280;71078;48.358;10.960;2023-08-20T04:38:29;96454.25;;;22.31;53.64
81547;BME280;71078;48.358;10.960;2023-08-20T04:40:50;96463.88;;;22.36;53.52
81547;BME280;71078;48.358;10.960;2023-08-20T04:43:10;96459.81;;;22.37;53.66
81547;BME280;71078;48.358;10.960;2023-08-20T04:45:31;96467.44;;;22.36;53.29
81547;BME280;71078;48.358;10.960;2023-08-20T04:47:51;96475.28;;;22.43;53.48
81547;BME280;71078;48.358;10.960;2023-08-20T04:50:12;96479.06;;;22.46;53.30
81547;BME280;71078;48.358;10.960;2023-08-20T04:52:34;96471.38;;;22.52;53.13
81547;BME280;71078;48.358;10.960;2023-08-20T04:54:55;96465.94;;;22.65;53.17
81547;BME280;71078;48.358;10.960;2023-08-20T04:57:15;96464.38;;;22.70;52.82
81547;BME280;71078;48.358;10.960;2023-08-20T04:59:37;96462.88;;;22.69;52.70
81547;BME280;71078;48.358;10.960;2023-08-20T05:01:57;96463.66;;;22.64;52.89
81547;BME280;71078;48.358;10.960;2023-08-20T05:04:18;96469.50;;;22.66;52.98
81547;BME280;71078;48.358;10.960;2023-08-20T05:06:38;96466.94;;;22.68;52.94
81547;BME280;71078;48.358;10.960;2023-08-20T05:08:59;96470.69;;;22.76;52.13
81547;BME280;71078;48.358;10.960;2023-08-20T05:11:20;96462.06;;;22.74;52.54
81547;BME280;71078;48.358;10.960;2023-08-20T05:13:41;96470.22;;;22.72;52.24
81547;BME280;71078;48.358;10.960;2023-08-20T05:16:02;96468.59;;;22.82;52.47
81547;BME280;71078;48.358;10.960;2023-08-20T05:18:22;96474.59;;;22.92;52.59
81547;BME280;71078;48.358;10.960;2023-08-20T05:20:43;96487.91;;;22.86;52.68
81547;BME280;71078;48.358;10.960;2023-08-20T05:23:03;96480.16;;;22.97;52.62
81547;BME280;71078;48.358;10.960;2023-08-20T05:25:26;96482.28;;;23.10;52.28
81547;BME280;71078;48.358;10.960;2023-08-20T05:27:47;96486.09;;;23.12;51.66
81547;BME280;71078;48.358;10.960;2023-08-20T05:30:08;96492.56;;;23.26;51.55
81547;BME280;71078;48.358;10.960;2023-08-20T05:32:31;96489.00;;;23.26;51.54
81547;BME280;71078;48.358;10.960;2023-08-20T05:34:51;96492.00;;;23.33;51.42
81547;BME280;71078;48.358;10.960;2023-08-20T05:37:12;96487.84;;;23.40;51.17
81547;BME280;71078;48.358;10.960;2023-08-20T05:39:41;96487.72;;;23.51;51.14
81547;BME280;71078;48.358;10.960;2023-08-20T05:42:02;96488.63;;;23.59;50.98
81547;BME280;71078;48.358;10.960;2023-08-20T05:44:23;96486.50;;;23.65;51.39
81547;BME280;71078;48.358;10.960;2023-08-20T05:46:43;96485.38;;;23.74;50.88
81547;BME280;71078;48.358;10.960;2023-08-20T05:49:04;96488.41;;;23.76;50.82
81547;BME280;71078;48.358;10.960;2023-08-20T05:51:25;96484.78;;;23.81;50.70
81547;BME280;71078;48.358;10.960;2023-08-20T05:53:45;96485.84;;;23.78;50.56
81547;BME280;71078;48.358;10.960;2023-08-20T05:56:06;96487.41;;;23.73;50.69
81547;BME280;71078;48.358;10.960;2023-08-20T05:58:27;96489.84;;;23.83;50.40
81547;BME280;71078;48.358;10.960;2023-08-20T06:00:47;96493.66;;;23.85;50.57
81547;BME280;71078;48.358;10.960;2023-08-20T06:03:08;96482.13;;;23.89;50.61
81547;BME280;71078;48.358;10.960;2023-08-20T06:05:29;96489.34;;;24.03;51.05
81547;BME280;71078;48.358;10.960;2023-08-20T06:07:50;96484.91;;;24.26;50.62
81547;BME280;71078;48.358;10.960;2023-08-20T06:10:11;96485.81;;;24.34;50.23
81547;BME280;71078;48.358;10.960;2023-08-20T06:12:32;96488.53;;;24.40;50.25
81547;BME280;71078;48.358;10.960;2023-08-20T06:14:54;96486.94;;;24.45;49.81
81547;BME280;71078;48.358;10.960;2023-08-20T06:17:15;96492.31;;;24.42;49.63
81547;BME280;71078;48.358;10.960;2023-08-20T06:19:36;96495.78;;;24.49;49.56
81547;BME280;71078;48.358;10.960;2023-08-20T06:21:58;96503.16;;;24.52;49.82
81547;BME280;71078;48.358;10.960;2023-08-20T06:24:19;96501.53;;;24.56;49.53
81547;BME280;71078;48.358;10.960;2023-08-20T06:26:40;96511.22;;;24.61;49.42
81547;BME280;71078;48.358;10.960;2023-08-20T06:29:00;96503.69;;;24.82;49.01
81547;BME280;71078;48.358;10.960;2023-08-20T06:31:21;96502.66;;;24.98;48.84
81547;BME280;71078;48.358;10.960;2023-08-20T06:33:41;96506.00;;;25.10;48.57
81547;BME280;71078;48.358;10.960;2023-08-20T06:36:02;96505.94;;;25.29;48.40
81547;BME280;71078;48.358;10.960;2023-08-20T06:38:23;96509.28;;;25.41;48.27
81547;BME280;71078;48.358;10.960;2023-08-20T06:40:44;96498.16;;;25.48;48.31
81547;BME280;71078;48.358;10.960;2023-08-20T06:43:04;96509.81;;;25.65;47.95
81547;BME280;71078;48.358;10.960;2023-08-20T06:45:25;96509.69;;;25.71;48.05
81547;BME280;71078;48.358;10.960;2023-08-20T06:47:45;96502.66;;;25.78;47.44
81547;BME280;71078;48.358;10.960;2023-08-20T06:50:06;96501.47;;;25.86;46.90
81547;BME280;71078;48.358;10.960;2023-08-20T06:52:27;96504.25;;;25.99;46.96
81547;BME280;71078;48.358;10.960;2023-08-20T06:54:47;96506.53;;;26.01;47.02
81547;BME280;71078;48.358;10.960;2023-08-20T06:57:08;96517.41;;;26.18;46.16
81547;BME280;71078;48.358;10.960;2023-08-20T06:59:28;96521.72;;;26.32;46.27
81547;BME280;71078;48.358;10.960;2023-08-20T07:01:49;96516.69;;;26.38;45.90
81547;BME280;71078;48.358;10.960;2023-08-20T07:04:10;96529.25;;;26.50;45.55
81547;BME280;71078;48.358;10.960;2023-08-20T07:06:30;96530.22;;;26.53;44.90
81547;BME280;71078;48.358;10.960;2023-08-20T07:08:51;96527.47;;;26.60;44.08
81547;BME280;71078;48.358;10.960;2023-08-20T07:11:12;96532.00;;;26.63;44.17
81547;BME280;71078;48.358;10.960;2023-08-20T07:13:32;96525.13;;;26.51;44.30
81547;BME280;71078;48.358;10.960;2023-08-20T07:15:54;96523.50;;;26.77;43.66
81547;BME280;71078;48.358;10.960;2023-08-20T07:18:15;96523.41;;;26.90;42.95
81547;BME280;71078;48.358;10.960;2023-08-20T07:20:36;96517.91;;;27.05;42.88
81547;BME280;71078;48.358;10.960;2023-08-20T07:22:56;96517.09;;;26.97;42.73
81547;BME280;71078;48.358;10.960;2023-08-20T07:25:18;96517.22;;;27.12;42.30
81547;BME280;71078;48.358;10.960;2023-08-20T07:27:39;96516.78;;;27.29;42.30
81547;BME280;71078;48.358;10.960;2023-08-20T07:29:59;96511.53;;;27.33;42.40
81547;BME280;71078;48.358;10.960;2023-08-20T07:32:20;96519.53;;;27.50;43.20
81547;BME280;71078;48.358;10.960;2023-08-20T07:34:40;96522.31;;;27.71;42.85
81547;BME280;71078;48.358;10.960;2023-08-20T07:37:01;96522.59;;;27.88;42.40
81547;BME280;71078;48.358;10.960;2023-08-20T07:39:23;96522.69;;;28.11;42.25
81547;BME280;71078;48.358;10.960;2023-08-20T07:41:43;96528.19;;;28.32;41.70
81547;BME280;71078;48.358;10.960;2023-08-20T07:44:04;96531.78;;;28.32;40.95
81547;BME280;71078;48.358;10.960;2023-08-20T07:46:25;96521.09;;;28.53;40.72
81547;BME280;71078;48.358;10.960;2023-08-20T07:48:46;96520.00;;;28.72;40.33
81547;BME280;71078;48.358;10.960;2023-08-20T07:51:07;96519.47;;;28.96;39.45
81547;BME280;71078;48.358;10.960;2023-08-20T07:53:29;96519.84;;;29.23;39.00
81547;BME280;71078;48.358;10.960;2023-08-20T07:55:50;96511.94;;;29.29;39.50
81547;BME280;71078;48.358;10.960;2023-08-20T07:58:11;96521.16;;;29.45;39.42
81547;BME280;71078;48.358;10.960;2023-08-20T08:00:32;96527.91;;;29.65;38.27
81547;BME280;71078;48.358;10.960;2023-08-20T08:02:52;96528.06;;;29.67;38.32
81547;BME280;71078;48.358;10.960;2023-08-20T08:05:13;96527.91;;;29.65;38.11
81547;BME280;71078;48.358;10.960;2023-08-20T08:07:34;96524.66;;;29.68;38.53
81547;BME280;71078;48.358;10.960;2023-08-20T08:09:55;96535.84;;;29.59;38.03
81547;BME280;71078;48.358;10.960;2023-08-20T08:12:16;96537.91;;;29.58;37.64
81547;BME280;71078;48.358;10.960;2023-08-20T08:14:36;96535.59;;;29.87;37.33
81547;BME280;71078;48.358;10.960;2023-08-20T08:16:57;96541.06;;;29.85;37.44
81547;BME280;71078;48.358;10.960;2023-08-20T08:19:18;96547.78;;;30.12;36.69
81547;BME280;71078;48.358;10.960;2023-08-20T08:21:39;96547.69;;;30.35;36.35
81547;BME280;71078;48.358;10.960;2023-08-20T08:23:59;96544.13;;;30.27;35.65
81547;BME280;71078;48.358;10.960;2023-08-20T08:26:20;96556.44;;;30.62;35.43
81547;BME280;71078;48.358;10.960;2023-08-20T08:28:41;96551.38;;;31.10;34.79
81547;BME280;71078;48.358;10.960;2023-08-20T08:31:01;96557.97;;;31.13;34.42
81547;BME280;71078;48.358;10.960;2023-08-20T08:33:24;96560.25;;;31.15;34.01
81547;BME280;71078;48.358;10.960;2023-08-20T08:35:45;96564.06;;;31.34;34.03
81547;BME280;71078;48.358;10.960;2023-08-20T08:38:05;96566.16;;;31.34;33.11
81547;BME280;71078;48.358;10.960;2023-08-20T08:40:29;96563.25;;;31.41;33.92
81547;BME280;71078;48.358;10.960;2023-08-20T08:42:50;96570.47;;;31.60;33.50
81547;BME280;71078;48.358;10.960;2023-08-20T08:45:11;96576.97;;;31.53;32.64
81547;BME280;71078;48.358;10.960;2023-08-20T08:47:32;96571.94;;;31.43;32.29
81547;BME280;71078;48.358;10.960;2023-08-20T08:49:57;96573.44;;;31.87;32.33
81547;BME280;71078;48.358;10.960;2023-08-20T08:52:17;96575.34;;;32.01;31.34
81547;BME280;71078;48.358;10.960;2023-08-20T08:54:39;96575.94;;;32.17;30.54
81547;BME280;71078;48.358;10.960;2023-08-20T08:57:00;96569.16;;;32.13;30.98
81547;BME280;71078;48.358;10.960;2023-08-20T08:59:21;96575.44;;;31.94;30.92
81547;BME280;71078;48.358;10.960;2023-08-20T09:01:42;96561.91;;;31.85;31.10
81547;BME280;71078;48.358;10.960;2023-08-20T09:04:02;96567.75;;;31.87;31.23
81547;BME280;71078;48.358;10.960;2023-08-20T09:06:23;96568.88;;;31.66;31.34
81547;BME280;71078;48.358;10.960;2023-08-20T09:08:44;96570.50;;;31.10;32.63
81547;BME280;71078;48.358;10.960;2023-08-20T09:11:04;96571.81;;;31.09;32.45
81547;BME280;71078;48.358;10.960;2023-08-20T09:13:39;96558.91;;;31.40;32.66
81547;BME280;71078;48.358;10.960;2023-08-20T09:16:06;96569.31;;;31.80;31.79
81547;BME280;71078;48.358;10.960;2023-08-20T09:18:27;96559.78;;;32.37;31.55
81547;BME280;71078;48.358;10.960;2023-08-20T09:20:48;96552.44;;;32.17;31.14
81547;BME280;71078;48.358;10.960;2023-08-20T09:23:12;96565.56;;;31.95;30.92
81547;BME280;71078;48.358;10.960;2023-08-20T09:25:35;96566.06;;;32.62;30.90
81547;BME280;71078;48.358;10.960;2023-08-20T09:27:56;96564.59;;;32.88;30.25
81547;BME280;71078;48.358;10.960;2023-08-20T09:30:19;96563.41;;;33.28;29.98
81547;BME280;71078;48.358;10.960;2023-08-20T09:32:43;96556.56;;;33.41;29.60
81547;BME280;71078;48.358;10.960;2023-08-20T09:35:04;96565.69;;;33.49;30.45
81547;BME280;71078;48.358;10.960;2023-08-20T09:37:24;96556.31;;;33.75;29.67
81547;BME280;71078;48.358;10.960;2023-08-20T09:39:45;96564.25;;;34.06;29.14
81547;BME280;71078;48.358;10.960;2023-08-20T09:42:07;96569.38;;;34.17;28.39
81547;BME280;71078;48.358;10.960;2023-08-20T09:44:32;96565.16;;;34.08;28.25
81547;BME280;71078;48.358;10.960;2023-08-20T09:46:54;96569.97;;;34.15;28.30
81547;BME280;71078;48.358;10.960;2023-08-20T09:49:17;96562.31;;;34.37;28.47
81547;BME280;71078;48.358;10.960;2023-08-20T09:51:40;96556.44;;;34.54;27.68
81547;BME280;71078;48.358;10.960;2023-08-20T09:54:18;96558.78;;;34.77;25.99
81547;BME280;71078;48.358;10.960;2023-08-20T09:56:43;96567.31;;;34.87;25.97
81547;BME280;71078;48.358;10.960;2023-08-20T09:59:04;96553.75;;;34.97;25.58
81547;BME280;71078;48.358;10.960;2023-08-20T10:01:25;96553.25;;;35.10;25.54
81547;BME280;71078;48.358;10.960;2023-08-20T10:03:46;96545.22;;;35.28;25.58
81547;BME280;71078;48.358;10.960;2023-08-20T10:06:07;96552.66;;;35.43;25.43
81547;BME280;71078;48.358;10.960;2023-08-20T10:08:28;96547.63;;;35.32;24.74
81547;BME280;71078;48.358;10.960;2023-08-20T10:10:48;96544.91;;;35.55;25.04
81547;BME280;71078;48.358;10.960;2023-08-20T10:13:09;96548.41;;;35.75;24.42
81547;BME280;71078;48.358;10.960;2023-08-20T10:15:30;96548.56;;;35.77;24.13
81547;BME280;71078;48.358;10.960;2023-08-20T10:17:52;96552.78;;;35.76;24.20
81547;BME280;71078;48.358;10.960;2023-08-20T10:20:14;96550.72;;;35.88;24.42
81547;BME280;71078;48.358;10.960;2023-08-20T10:22:40;96540.31;;;35.93;23.53
81547;BME280;71078;48.358;10.960;2023-08-20T10:25:00;96545.78;;;36.22;23.74
81547;BME280;71078;48.358;10.960;2023-08-20T10:27:34;96549.00;;;36.16;23.56
81547;BME280;71078;48.358;10.960;2023-08-20T10:29:55;96551.47;;;36.10;23.57
81547;BME280;71078;48.358;10.960;2023-08-20T10:32:16;96546.09;;;36.04;23.84
81547;BME280;71078;48.358;10.960;2023-08-20T10:34:39;96547.19;;;36.32;23.85
81547;BME280;71078;48.358;10.960;2023-08-20T10:37:09;96553.09;;;36.13;23.76
81547;BME280;71078;48.358;10.960;2023-08-20T10:39:30;96551.34;;;35.86;23.91
81547;BME280;71078;48.358;10.960;2023-08-20T10:42:08;96560.41;;;36.04;25.01
81547;BME280;71078;48.358;10.960;2023-08-20T10:44:58;96557.06;;;35.86;24.08
81547;BME280;71078;48.358;10.960;2023-08-20T10:47:22;96561.56;;;36.11;23.72
81547;BME280;71078;48.358;10.960;2023-08-20T10:49:42;96549.72;;;36.05;23.00
81547;BME280;71078;48.358;10.960;2023-08-20T10:52:05;96557.31;;;36.12;23.79
81547;BME280;71078;48.358;10.960;2023-08-20T10:54:26;96552.78;;;36.30;23.37
81547;BME280;71078;48.358;10.960;2023-08-20T10:56:53;96551.34;;;36.41;23.27
81547;BME280;71078;48.358;10.960;2023-08-20T10:59:16;96557.13;;;36.53;23.45
81547;BME280;71078;48.358;10.960;2023-08-20T11:01:38;96545.97;;;36.35;22.59
81547;BME280;71078;48.358;10.960;2023-08-20T11:04:00;96560.63;;;36.63;22.07
81547;BME280;71078;48.358;10.960;2023-08-20T11:06:30;96553.69;;;36.77;22.16
81547;BME280;71078;48.358;10.960;2023-08-20T11:08:53;96552.06;;;36.74;22.93
81547;BME280;71078;48.358;10.960;2023-08-20T11:11:15;96546.47;;;36.88;21.96
81547;BME280;71078;48.358;10.960;2023-08-20T11:13:36;96553.72;;;37.01;22.09
81547;BME280;71078;48.358;10.960;2023-08-20T11:15:57;96543.16;;;37.03;21.92
81547;BME280;71078;48.358;10.960;2023-08-20T11:18:17;96536.63;;;36.79;22.31
81547;BME280;71078;48.358;10.960;2023-08-20T11:20:38;96542.03;;;36.97;22.22
81547;BME280;71078;48.358;10.960;2023-08-20T11:22:59;96535.56;;;37.08;21.75
81547;BME280;71078;48.358;10.960;2023-08-20T11:25:20;96540.00;;;36.88;21.69
81547;BME280;71078;48.358;10.960;2023-08-20T11:27:44;96541.78;;;36.93;21.26
81547;BME280;71078;48.358;10.960;2023-08-20T11:30:05;96540.66;;;36.98;22.24
81547;BME280;71078;48.358;10.960;2023-08-20T11:32:26;96532.56;;;36.94;21.89
81547;BME280;71078;48.358;10.960;2023-08-20T11:34:47;96533.69;;;37.12;20.96
81547;BME280;71078;48.358;10.960;2023-08-20T11:37:08;96534.94;;;37.21;20.99
81547;BME280;71078;48.358;10.960;2023-08-20T11:39:29;96529.81;;;37.31;21.74
81547;BME280;71078;48.358;10.960;2023-08-20T11:41:49;96533.94;;;37.05;21.03
81547;BME280;71078;48.358;10.960;2023-08-20T11:44:10;96533.91;;;36.04;21.11
81547;BME280;71078;48.358;10.960;2023-08-20T11:46:31;96529.91;;;36.30;21.00
81547;BME280;71078;48.358;10.960;2023-08-20T11:49:09;96524.31;;;36.89;21.65
81547;BME280;71078;48.358;10.960;2023-08-20T11:51:41;96528.78;;;36.80;20.46
81547;BME280;71078;48.358;10.960;2023-08-20T11:54:02;96521.97;;;37.20;20.66
81547;BME280;71078;48.358;10.960;2023-08-20T11:56:24;96526.69;;;37.51;20.81
81547;BME280;71078;48.358;10.960;2023-08-20T11:58:50;96523.47;;;37.21;20.10
81547;BME280;71078;48.358;10.960;2023-08-20T12:01:13;96514.56;;;36.59;20.22
81547;BME280;71078;48.358;10.960;2023-08-20T12:03:34;96515.22;;;36.69;20.22
81547;BME280;71078;48.358;10.960;2023-08-20T12:05:55;96514.31;;;36.55;19.75
81547;BME280;71078;48.358;10.960;2023-08-20T12:08:16;96520.31;;;36.26;20.10
81547;BME280;71078;48.358;10.960;2023-08-20T12:10:41;96510.22;;;36.58;20.83
81547;BME280;71078;48.358;10.960;2023-08-20T12:13:03;96515.22;;;36.80;20.40
81547;BME280;71078;48.358;10.960;2023-08-20T12:15:24;96508.88;;;36.70;20.34
81547;BME280;71078;48.358;10.960;2023-08-20T12:17:55;96510.13;;;36.01;20.95
81547;BME280;71078;48.358;10.960;2023-08-20T12:20:17;96505.72;;;35.88;20.07
81547;BME280;71078;48.358;10.960;2023-08-20T12:22:38;96505.75;;;36.22;21.35
81547;BME280;71078;48.358;10.960;2023-08-20T12:24:59;96499.03;;;36.62;20.95
81547;BME280;71078;48.358;10.960;2023-08-20T12:27:20;96506.41;;;37.00;20.41
81547;BME280;71078;48.358;10.960;2023-08-20T12:29:40;96504.44;;;37.02;19.27